sensor_id;sensor_type;location;lat;lon;timestamp;P1;durP1;ratioP1;P2;durP2;ratioP2
4758;SDS011;2393;50.560;12.636;2023-04-24T00:01:52;2.97;;;0.73;;
4758;SDS011;2393;50.560;12.636;2023-04-24T00:04:21;2.50;;;0.93;;
4758;SDS011;2393;50.560;12.636;2023-04-24T00:06:52;1.10;;;0.80;;
4758;SDS011;2393;50.560;12.636;2023-04-24T00:09:23;0.70;;;0.70;;
4758;SDS011;2393;50.560;12.636;2023-04-24T00:11:52;0.80;;;0.40;;
4758;SDS011;2393;50.560;12.636;2023-04-24T00:14:20;0.40;;;0.37;;
4758;SDS011;2393;50.560;12.636;2023-04-24T00:16:50;1.17;;;0.80;;
4758;SDS011;2393;50.560;12.636;2023-04-24T00:19:18;0.60;;;0.60;;
4758;SDS011;2393;50.560;12.636;2023-04-24T00:21:47;1.40;;;0.70;;
4758;SDS011;2393;50.560;12.636;2023-04-24T00:24:16;1.20;;;0.67;;
4758;SDS011;2393;50.560;12.636;2023-04-24T00:26:45;0.80;;;0.60;;
4758;SDS011;2393;50.560;12.636;2023-04-24T00:29:13;0.67;;;0.50;;
4758;SDS011;2393;50.560;12.636;2023-04-24T00:31:41;0.83;;;0.70;;
4758;SDS011;2393;50.560;12.636;2023-04-24T00:34:11;0.40;;;0.40;;
4758;SDS011;2393;50.560;12.636;2023-04-24T00:36:40;0.77;;;0.77;;
4758;SDS011;2393;50.560;12.636;2023-04-24T00:39:08;0.60;;;0.60;;
4758;SDS011;2393;50.560;12.636;2023-04-24T00:41:36;3.27;;;0.50;;
4758;SDS011;2393;50.560;12.636;2023-04-24T00:44:04;1.60;;;0.30;;
4758;SDS011;2393;50.560;12.636;2023-04-24T00:46:33;1.10;;;0.70;;
4758;SDS011;2393;50.560;12.636;2023-04-24T00:49:04;1.37;;;0.40;;
4758;SDS011;2393;50.560;12.636;2023-04-24T00:51:34;0.80;;;0.80;;
4758;SDS011;2393;50.560;12.636;2023-04-24T00:54:03;0.50;;;0.40;;
4758;SDS011;2393;50.560;12.636;2023-04-24T00:56:32;0.50;;;0.43;;
4758;SDS011;2393;50.560;12.636;2023-04-24T00:59:01;0.93;;;0.47;;
4758;SDS011;2393;50.560;12.636;2023-04-24T01:01:29;0.77;;;0.33;;
4758;SDS011;2393;50.560;12.636;2023-04-24T01:03:59;1.60;;;0.60;;
4758;SDS011;2393;50.560;12.636;2023-04-24T01:06:28;0.50;;;0.40;;
4758;SDS011;2393;50.560;12.636;2023-04-24T01:09:00;0.50;;;0.50;;
4758;SDS011;2393;50.560;12.636;2023-04-24T01:11:29;0.50;;;0.50;;
4758;SDS011;2393;50.560;12.636;2023-04-24T01:13:57;1.27;;;0.53;;
4758;SDS011;2393;50.560;12.636;2023-04-24T01:16:26;1.30;;;0.53;;
4758;SDS011;2393;50.560;12.636;2023-04-24T01:18:54;2.87;;;0.50;;
4758;SDS011;2393;50.560;12.636;2023-04-24T01:21:22;1.23;;;0.50;;
4758;SDS011;2393;50.560;12.636;2023-04-24T01:23:57;0.40;;;0.40;;
4758;SDS011;2393;50.560;12.636;2023-04-24T01:26:25;0.57;;;0.57;;
4758;SDS011;2393;50.560;12.636;2023-04-24T01:28:53;3.13;;;0.60;;
4758;SDS011;2393;50.560;12.636;2023-04-24T01:31:22;1.47;;;0.70;;
4758;SDS011;2393;50.560;12.636;2023-04-24T01:33:50;0.80;;;0.67;;
4758;SDS011;2393;50.560;12.636;2023-04-24T01:36:19;1.30;;;0.70;;
4758;SDS011;2393;50.560;12.636;2023-04-24T01:38:51;2.07;;;0.43;;
4758;SDS011;2393;50.560;12.636;2023-04-24T01:41:26;1.13;;;0.50;;
4758;SDS011;2393;50.560;12.636;2023-04-24T01:43:55;1.07;;;0.50;;
4758;SDS011;2393;50.560;12.636;2023-04-24T01:46:24;3.07;;;0.63;;
4758;SDS011;2393;50.560;12.636;2023-04-24T01:48:53;0.70;;;0.70;;
4758;SDS011;2393;50.560;12.636;2023-04-24T01:51:22;0.67;;;0.53;;
4758;SDS011;2393;50.560;12.636;2023-04-24T01:53:50;1.33;;;0.40;;
4758;SDS011;2393;50.560;12.636;2023-04-24T01:56:19;0.57;;;0.57;;
4758;SDS011;2393;50.560;12.636;2023-04-24T01:58:49;1.27;;;0.80;;
4758;SDS011;2393;50.560;12.636;2023-04-24T02:01:18;4.03;;;0.93;;
4758;SDS011;2393;50.560;12.636;2023-04-24T02:03:47;1.77;;;0.70;;
4758;SDS011;2393;50.560;12.636;2023-04-24T02:06:15;1.63;;;0.70;;
4758;SDS011;2393;50.560;12.636;2023-04-24T02:08:43;0.60;;;0.60;;
4758;SDS011;2393;50.560;12.636;2023-04-24T02:11:11;0.87;;;0.67;;
4758;SDS011;2393;50.560;12.636;2023-04-24T02:13:39;2.30;;;0.50;;
4758;SDS011;2393;50.560;12.636;2023-04-24T02:16:08;0.80;;;0.50;;
4758;SDS011;2393;50.560;12.636;2023-04-24T02:18:37;0.40;;;0.40;;
4758;SDS011;2393;50.560;12.636;2023-04-24T02:21:05;0.53;;;0.53;;
4758;SDS011;2393;50.560;12.636;2023-04-24T02:23:34;0.73;;;0.30;;
4758;SDS011;2393;50.560;12.636;2023-04-24T02:26:04;1.53;;;0.53;;
4758;SDS011;2393;50.560;12.636;2023-04-24T02:28:32;0.40;;;0.40;;
4758;SDS011;2393;50.560;12.636;2023-04-24T02:31:01;2.00;;;0.73;;
4758;SDS011;2393;50.560;12.636;2023-04-24T02:33:30;1.43;;;0.50;;
4758;SDS011;2393;50.560;12.636;2023-04-24T02:35:58;1.33;;;0.50;;
4758;SDS011;2393;50.560;12.636;2023-04-24T02:38:27;1.53;;;0.70;;
4758;SDS011;2393;50.560;12.636;2023-04-24T02:40:55;2.10;;;0.77;;
4758;SDS011;2393;50.560;12.636;2023-04-24T02:43:25;0.40;;;0.40;;
4758;SDS011;2393;50.560;12.636;2023-04-24T02:45:53;0.50;;;0.50;;
4758;SDS011;2393;50.560;12.636;2023-04-24T02:48:21;0.80;;;0.80;;
4758;SDS011;2393;50.560;12.636;2023-04-24T02:50:51;0.50;;;0.50;;
4758;SDS011;2393;50.560;12.636;2023-04-24T02:53:19;1.00;;;0.57;;
4758;SDS011;2393;50.560;12.636;2023-04-24T02:55:47;2.07;;;0.57;;
4758;SDS011;2393;50.560;12.636;2023-04-24T02:58:15;0.80;;;0.67;;
4758;SDS011;2393;50.560;12.636;2023-04-24T03:00:46;0.60;;;0.60;;
4758;SDS011;2393;50.560;12.636;2023-04-24T03:03:14;1.27;;;0.80;;
4758;SDS011;2393;50.560;12.636;2023-04-24T03:05:42;1.20;;;0.80;;
4758;SDS011;2393;50.560;12.636;2023-04-24T03:08:12;0.70;;;0.70;;
4758;SDS011;2393;50.560;12.636;2023-04-24T03:10:41;0.50;;;0.50;;
4758;SDS011;2393;50.560;12.636;2023-04-24T03:13:14;0.80;;;0.80;;
4758;SDS011;2393;50.560;12.636;2023-04-24T03:15:43;1.13;;;0.87;;
4758;SDS011;2393;50.560;12.636;2023-04-24T03:18:13;1.60;;;0.43;;
4758;SDS011;2393;50.560;12.636;2023-04-24T03:20:41;0.70;;;0.70;;
4758;SDS011;2393;50.560;12.636;2023-04-24T03:23:09;0.87;;;0.87;;
4758;SDS011;2393;50.560;12.636;2023-04-24T03:25:39;2.20;;;0.57;;
4758;SDS011;2393;50.560;12.636;2023-04-24T03:28:10;0.70;;;0.70;;
4758;SDS011;2393;50.560;12.636;2023-04-24T03:30:50;0.67;;;0.67;;
4758;SDS011;2393;50.560;12.636;2023-04-24T03:33:19;0.80;;;0.60;;
4758;SDS011;2393;50.560;12.636;2023-04-24T03:35:56;3.13;;;0.40;;
4758;SDS011;2393;50.560;12.636;2023-04-24T03:38:33;0.87;;;0.60;;
4758;SDS011;2393;50.560;12.636;2023-04-24T03:41:21;2.43;;;0.50;;
4758;SDS011;2393;50.560;12.636;2023-04-24T03:43:53;0.60;;;0.60;;
4758;SDS011;2393;50.560;12.636;2023-04-24T03:46:22;0.70;;;0.70;;
4758;SDS011;2393;50.560;12.636;2023-04-24T03:48:54;1.77;;;0.80;;
4758;SDS011;2393;50.560;12.636;2023-04-24T03:51:26;3.33;;;0.77;;
4758;SDS011;2393;50.560;12.636;2023-04-24T03:54:04;3.53;;;0.60;;
4758;SDS011;2393;50.560;12.636;2023-04-24T03:56:35;1.13;;;0.83;;
4758;SDS011;2393;50.560;12.636;2023-04-24T03:59:03;3.23;;;0.50;;
4758;SDS011;2393;50.560;12.636;2023-04-24T04:01:31;0.90;;;0.60;;
4758;SDS011;2393;50.560;12.636;2023-04-24T04:04:13;0.70;;;0.70;;
4758;SDS011;2393;50.560;12.636;2023-04-24T04:06:43;0.90;;;0.83;;
4758;SDS011;2393;50.560;12.636;2023-04-24T04:09:14;3.03;;;0.67;;
4758;SDS011;2393;50.560;12.636;2023-04-24T04:11:42;0.77;;;0.77;;
4758;SDS011;2393;50.560;12.636;2023-04-24T04:14:11;0.83;;;0.80;;
4758;SDS011;2393;50.560;12.636;2023-04-24T04:16:42;0.40;;;0.40;;
4758;SDS011;2393;50.560;12.636;2023-04-24T04:19:11;0.77;;;0.77;;
4758;SDS011;2393;50.560;12.636;2023-04-24T04:21:39;1.27;;;0.50;;
4758;SDS011;2393;50.560;12.636;2023-04-24T04:24:16;0.90;;;0.67;;
4758;SDS011;2393;50.560;12.636;2023-04-24T04:26:45;1.63;;;0.60;;
4758;SDS011;2393;50.560;12.636;2023-04-24T04:29:24;1.03;;;0.93;;
4758;SDS011;2393;50.560;12.636;2023-04-24T04:31:52;2.37;;;1.00;;
4758;SDS011;2393;50.560;12.636;2023-04-24T04:34:22;0.50;;;0.50;;
4758;SDS011;2393;50.560;12.636;2023-04-24T04:36:51;5.70;;;0.77;;
4758;SDS011;2393;50.560;12.636;2023-04-24T04:39:39;4.10;;;0.60;;
4758;SDS011;2393;50.560;12.636;2023-04-24T04:42:12;2.50;;;0.73;;
4758;SDS011;2393;50.560;12.636;2023-04-24T04:44:42;1.23;;;0.60;;
4758;SDS011;2393;50.560;12.636;2023-04-24T04:47:16;0.60;;;0.60;;
4758;SDS011;2393;50.560;12.636;2023-04-24T04:49:45;0.43;;;0.43;;
4758;SDS011;2393;50.560;12.636;2023-04-24T04:52:18;0.50;;;0.50;;
4758;SDS011;2393;50.560;12.636;2023-04-24T04:55:02;0.37;;;0.30;;
4758;SDS011;2393;50.560;12.636;2023-04-24T04:57:50;1.47;;;0.50;;
4758;SDS011;2393;50.560;12.636;2023-04-24T05:00:18;0.60;;;0.60;;
4758;SDS011;2393;50.560;12.636;2023-04-24T05:02:50;1.73;;;0.67;;
4758;SDS011;2393;50.560;12.636;2023-04-24T05:05:19;0.47;;;0.40;;
4758;SDS011;2393;50.560;12.636;2023-04-24T05:07:47;1.40;;;0.53;;
4758;SDS011;2393;50.560;12.636;2023-04-24T05:10:17;0.40;;;0.40;;
4758;SDS011;2393;50.560;12.636;2023-04-24T05:12:45;2.20;;;0.40;;
4758;SDS011;2393;50.560;12.636;2023-04-24T05:15:13;4.17;;;0.60;;
4758;SDS011;2393;50.560;12.636;2023-04-24T05:17:41;1.17;;;0.50;;
4758;SDS011;2393;50.560;12.636;2023-04-24T05:20:10;0.63;;;0.40;;
4758;SDS011;2393;50.560;12.636;2023-04-24T05:22:39;0.80;;;0.70;;
4758;SDS011;2393;50.560;12.636;2023-04-24T05:25:07;2.20;;;0.60;;
4758;SDS011;2393;50.560;12.636;2023-04-24T05:27:42;0.50;;;0.50;;
4758;SDS011;2393;50.560;12.636;2023-04-24T05:30:14;0.50;;;0.50;;
4758;SDS011;2393;50.560;12.636;2023-04-24T05:32:42;0.40;;;0.30;;
4758;SDS011;2393;50.560;12.636;2023-04-24T05:35:12;0.50;;;0.50;;
4758;SDS011;2393;50.560;12.636;2023-04-24T05:37:40;0.50;;;0.50;;
4758;SDS011;2393;50.560;12.636;2023-04-24T05:40:09;1.13;;;0.60;;
4758;SDS011;2393;50.560;12.636;2023-04-24T05:42:38;1.90;;;0.60;;
4758;SDS011;2393;50.560;12.636;2023-04-24T05:45:08;1.73;;;0.40;;
4758;SDS011;2393;50.560;12.636;2023-04-24T05:47:41;0.70;;;0.47;;
4758;SDS011;2393;50.560;12.636;2023-04-24T05:50:10;2.20;;;0.70;;
4758;SDS011;2393;50.560;12.636;2023-04-24T05:52:38;3.80;;;0.73;;
4758;SDS011;2393;50.560;12.636;2023-04-24T05:55:20;2.57;;;2.37;;
4758;SDS011;2393;50.560;12.636;2023-04-24T05:57:48;2.00;;;1.20;;
4758;SDS011;2393;50.560;12.636;2023-04-24T06:00:18;1.73;;;0.63;;
4758;SDS011;2393;50.560;12.636;2023-04-24T06:02:56;0.70;;;0.57;;
4758;SDS011;2393;50.560;12.636;2023-04-24T06:05:25;0.60;;;0.50;;
4758;SDS011;2393;50.560;12.636;2023-04-24T06:07:54;1.10;;;0.60;;
4758;SDS011;2393;50.560;12.636;2023-04-24T06:10:25;0.50;;;0.50;;
4758;SDS011;2393;50.560;12.636;2023-04-24T06:12:54;0.40;;;0.40;;
4758;SDS011;2393;50.560;12.636;2023-04-24T06:15:29;1.00;;;0.67;;
4758;SDS011;2393;50.560;12.636;2023-04-24T06:18:03;2.00;;;0.47;;
4758;SDS011;2393;50.560;12.636;2023-04-24T06:20:32;1.83;;;0.53;;
4758;SDS011;2393;50.560;12.636;2023-04-24T06:23:01;4.87;;;0.43;;
4758;SDS011;2393;50.560;12.636;2023-04-24T06:25:31;1.03;;;0.50;;
4758;SDS011;2393;50.560;12.636;2023-04-24T06:28:00;2.57;;;0.43;;
4758;SDS011;2393;50.560;12.636;2023-04-24T06:30:31;0.50;;;0.40;;
4758;SDS011;2393;50.560;12.636;2023-04-24T06:32:59;0.40;;;0.40;;
4758;SDS011;2393;50.560;12.636;2023-04-24T06:35:46;0.60;;;0.40;;
4758;SDS011;2393;50.560;12.636;2023-04-24T06:38:14;1.10;;;0.43;;
4758;SDS011;2393;50.560;12.636;2023-04-24T06:40:43;1.87;;;0.40;;
4758;SDS011;2393;50.560;12.636;2023-04-24T06:43:11;0.30;;;0.30;;
4758;SDS011;2393;50.560;12.636;2023-04-24T06:45:40;0.30;;;0.27;;
4758;SDS011;2393;50.560;12.636;2023-04-24T06:48:10;0.60;;;0.60;;
4758;SDS011;2393;50.560;12.636;2023-04-24T06:50:38;1.90;;;0.50;;
4758;SDS011;2393;50.560;12.636;2023-04-24T06:53:06;0.40;;;0.40;;
4758;SDS011;2393;50.560;12.636;2023-04-24T06:55:35;1.93;;;0.43;;
4758;SDS011;2393;50.560;12.636;2023-04-24T06:58:03;2.20;;;0.60;;
4758;SDS011;2393;50.560;12.636;2023-04-24T07:00:32;0.60;;;0.40;;
4758;SDS011;2393;50.560;12.636;2023-04-24T07:03:01;2.60;;;0.60;;
4758;SDS011;2393;50.560;12.636;2023-04-24T07:05:31;2.20;;;0.47;;
4758;SDS011;2393;50.560;12.636;2023-04-24T07:08:01;0.77;;;0.73;;
4758;SDS011;2393;50.560;12.636;2023-04-24T07:10:30;0.60;;;0.60;;
4758;SDS011;2393;50.560;12.636;2023-04-24T07:13:00;1.10;;;0.40;;
4758;SDS011;2393;50.560;12.636;2023-04-24T07:15:28;0.33;;;0.30;;
4758;SDS011;2393;50.560;12.636;2023-04-24T07:17:56;1.50;;;0.73;;
4758;SDS011;2393;50.560;12.636;2023-04-24T07:20:26;0.60;;;0.30;;
4758;SDS011;2393;50.560;12.636;2023-04-24T07:22:54;1.37;;;0.90;;
4758;SDS011;2393;50.560;12.636;2023-04-24T07:25:22;0.73;;;0.33;;
4758;SDS011;2393;50.560;12.636;2023-04-24T07:27:50;0.93;;;0.50;;
4758;SDS011;2393;50.560;12.636;2023-04-24T07:30:18;0.70;;;0.60;;
4758;SDS011;2393;50.560;12.636;2023-04-24T07:32:46;0.73;;;0.50;;
4758;SDS011;2393;50.560;12.636;2023-04-24T07:35:15;0.50;;;0.40;;
4758;SDS011;2393;50.560;12.636;2023-04-24T07:37:44;1.07;;;0.60;;
4758;SDS011;2393;50.560;12.636;2023-04-24T07:40:12;5.70;;;0.80;;
4758;SDS011;2393;50.560;12.636;2023-04-24T07:42:41;2.10;;;0.47;;
4758;SDS011;2393;50.560;12.636;2023-04-24T07:45:10;1.00;;;0.50;;
4758;SDS011;2393;50.560;12.636;2023-04-24T07:47:38;0.53;;;0.40;;
4758;SDS011;2393;50.560;12.636;2023-04-24T07:50:06;0.40;;;0.30;;
4758;SDS011;2393;50.560;12.636;2023-04-24T07:52:34;2.13;;;1.50;;
4758;SDS011;2393;50.560;12.636;2023-04-24T07:55:05;0.97;;;0.47;;
4758;SDS011;2393;50.560;12.636;2023-04-24T07:57:33;0.87;;;0.70;;
4758;SDS011;2393;50.560;12.636;2023-04-24T08:00:02;0.40;;;0.30;;
4758;SDS011;2393;50.560;12.636;2023-04-24T08:02:36;0.60;;;0.30;;
4758;SDS011;2393;50.560;12.636;2023-04-24T08:05:05;0.93;;;0.60;;
4758;SDS011;2393;50.560;12.636;2023-04-24T08:07:34;4.97;;;0.60;;
4758;SDS011;2393;50.560;12.636;2023-04-24T08:10:02;1.63;;;0.30;;
4758;SDS011;2393;50.560;12.636;2023-04-24T08:12:33;1.67;;;0.30;;
4758;SDS011;2393;50.560;12.636;2023-04-24T08:15:01;0.37;;;0.30;;
4758;SDS011;2393;50.560;12.636;2023-04-24T08:17:29;0.93;;;0.60;;
4758;SDS011;2393;50.560;12.636;2023-04-24T08:20:00;2.93;;;0.50;;
4758;SDS011;2393;50.560;12.636;2023-04-24T08:22:28;1.83;;;0.50;;
4758;SDS011;2393;50.560;12.636;2023-04-24T08:24:57;1.43;;;0.40;;
4758;SDS011;2393;50.560;12.636;2023-04-24T08:27:28;0.30;;;0.20;;
4758;SDS011;2393;50.560;12.636;2023-04-24T08:29:56;7.90;;;0.60;;
4758;SDS011;2393;50.560;12.636;2023-04-24T08:32:24;0.80;;;0.20;;
4758;SDS011;2393;50.560;12.636;2023-04-24T08:34:54;2.10;;;0.73;;
4758;SDS011;2393;50.560;12.636;2023-04-24T08:37:22;0.40;;;0.30;;
4758;SDS011;2393;50.560;12.636;2023-04-24T08:39:51;0.73;;;0.40;;
4758;SDS011;2393;50.560;12.636;2023-04-24T08:42:20;2.80;;;0.50;;
4758;SDS011;2393;50.560;12.636;2023-04-24T08:44:50;5.30;;;0.30;;
4758;SDS011;2393;50.560;12.636;2023-04-24T08:47:18;0.50;;;0.40;;
4758;SDS011;2393;50.560;12.636;2023-04-24T08:49:47;0.40;;;0.30;;
4758;SDS011;2393;50.560;12.636;2023-04-24T08:52:17;1.30;;;0.43;;
4758;SDS011;2393;50.560;12.636;2023-04-24T08:54:46;5.87;;;0.30;;
4758;SDS011;2393;50.560;12.636;2023-04-24T08:57:15;2.00;;;0.40;;
4758;SDS011;2393;50.560;12.636;2023-04-24T08:59:43;2.43;;;0.33;;
4758;SDS011;2393;50.560;12.636;2023-04-24T09:02:14;1.17;;;0.40;;
4758;SDS011;2393;50.560;12.636;2023-04-24T09:04:43;0.83;;;0.83;;
4758;SDS011;2393;50.560;12.636;2023-04-24T09:07:13;1.87;;;0.60;;
4758;SDS011;2393;50.560;12.636;2023-04-24T09:09:43;1.33;;;0.60;;
4758;SDS011;2393;50.560;12.636;2023-04-24T09:12:11;1.20;;;0.43;;
4758;SDS011;2393;50.560;12.636;2023-04-24T09:14:40;0.60;;;0.20;;
4758;SDS011;2393;50.560;12.636;2023-04-24T09:17:11;0.40;;;0.20;;
4758;SDS011;2393;50.560;12.636;2023-04-24T09:19:41;0.50;;;0.33;;
4758;SDS011;2393;50.560;12.636;2023-04-24T09:22:10;0.87;;;0.30;;
4758;SDS011;2393;50.560;12.636;2023-04-24T09:24:39;0.70;;;0.30;;
4758;SDS011;2393;50.560;12.636;2023-04-24T09:27:07;0.60;;;0.20;;
4758;SDS011;2393;50.560;12.636;2023-04-24T09:29:38;0.50;;;0.37;;
4758;SDS011;2393;50.560;12.636;2023-04-24T09:32:19;1.83;;;0.20;;
4758;SDS011;2393;50.560;12.636;2023-04-24T09:35:04;3.10;;;0.20;;
4758;SDS011;2393;50.560;12.636;2023-04-24T09:37:37;0.30;;;0.30;;
4758;SDS011;2393;50.560;12.636;2023-04-24T09:40:08;1.33;;;0.30;;
4758;SDS011;2393;50.560;12.636;2023-04-24T09:42:43;0.30;;;0.20;;
4758;SDS011;2393;50.560;12.636;2023-04-24T09:45:11;1.43;;;0.50;;
4758;SDS011;2393;50.560;12.636;2023-04-24T09:47:42;0.40;;;0.30;;
4758;SDS011;2393;50.560;12.636;2023-04-24T09:50:12;0.73;;;0.30;;
4758;SDS011;2393;50.560;12.636;2023-04-24T09:52:46;2.30;;;0.70;;
4758;SDS011;2393;50.560;12.636;2023-04-24T09:55:23;0.37;;;0.37;;
4758;SDS011;2393;50.560;12.636;2023-04-24T09:57:52;2.23;;;0.50;;
4758;SDS011;2393;50.560;12.636;2023-04-24T10:00:24;0.60;;;0.30;;
4758;SDS011;2393;50.560;12.636;2023-04-24T10:02:59;2.30;;;0.50;;
4758;SDS011;2393;50.560;12.636;2023-04-24T10:05:28;0.50;;;0.30;;
4758;SDS011;2393;50.560;12.636;2023-04-24T10:07:59;1.17;;;0.63;;
4758;SDS011;2393;50.560;12.636;2023-04-24T10:10:29;0.40;;;0.40;;
4758;SDS011;2393;50.560;12.636;2023-04-24T10:12:58;0.83;;;0.30;;
4758;SDS011;2393;50.560;12.636;2023-04-24T10:15:27;5.03;;;0.30;;
4758;SDS011;2393;50.560;12.636;2023-04-24T10:17:55;0.50;;;0.50;;
4758;SDS011;2393;50.560;12.636;2023-04-24T10:20:27;0.73;;;0.60;;
4758;SDS011;2393;50.560;12.636;2023-04-24T10:22:57;0.73;;;0.73;;
4758;SDS011;2393;50.560;12.636;2023-04-24T10:25:27;0.53;;;0.53;;
4758;SDS011;2393;50.560;12.636;2023-04-24T10:27:57;0.90;;;0.30;;
4758;SDS011;2393;50.560;12.636;2023-04-24T10:30:27;1.23;;;0.53;;
4758;SDS011;2393;50.560;12.636;2023-04-24T10:32:56;1.83;;;0.50;;
4758;SDS011;2393;50.560;12.636;2023-04-24T10:35:25;0.40;;;0.30;;
4758;SDS011;2393;50.560;12.636;2023-04-24T10:37:56;0.70;;;0.30;;
4758;SDS011;2393;50.560;12.636;2023-04-24T10:40:30;0.40;;;0.37;;
4758;SDS011;2393;50.560;12.636;2023-04-24T10:42:59;0.73;;;0.50;;
4758;SDS011;2393;50.560;12.636;2023-04-24T10:45:30;0.40;;;0.30;;
4758;SDS011;2393;50.560;12.636;2023-04-24T10:47:58;0.53;;;0.30;;
4758;SDS011;2393;50.560;12.636;2023-04-24T10:50:43;1.07;;;0.43;;
4758;SDS011;2393;50.560;12.636;2023-04-24T10:53:12;0.40;;;0.40;;
4758;SDS011;2393;50.560;12.636;2023-04-24T10:55:44;0.40;;;0.40;;
4758;SDS011;2393;50.560;12.636;2023-04-24T10:58:13;1.13;;;0.70;;
4758;SDS011;2393;50.560;12.636;2023-04-24T11:00:43;0.40;;;0.30;;
4758;SDS011;2393;50.560;12.636;2023-04-24T11:03:24;1.50;;;0.47;;
4758;SDS011;2393;50.560;12.636;2023-04-24T11:06:00;1.10;;;1.10;;
4758;SDS011;2393;50.560;12.636;2023-04-24T11:08:30;2.67;;;0.53;;
4758;SDS011;2393;50.560;12.636;2023-04-24T11:11:01;0.60;;;0.47;;
4758;SDS011;2393;50.560;12.636;2023-04-24T11:16:33;0.90;;;0.40;;
4758;SDS011;2393;50.560;12.636;2023-04-24T11:19:05;0.53;;;0.53;;
4758;SDS011;2393;50.560;12.636;2023-04-24T11:21:43;2.40;;;0.77;;
4758;SDS011;2393;50.560;12.636;2023-04-24T11:24:29;0.43;;;0.40;;
4758;SDS011;2393;50.560;12.636;2023-04-24T11:26:59;4.00;;;0.90;;
4758;SDS011;2393;50.560;12.636;2023-04-24T11:29:38;0.43;;;0.40;;
4758;SDS011;2393;50.560;12.636;2023-04-24T11:32:14;0.40;;;0.30;;
4758;SDS011;2393;50.560;12.636;2023-04-24T11:35:01;0.50;;;0.50;;
4758;SDS011;2393;50.560;12.636;2023-04-24T11:37:35;0.57;;;0.57;;
4758;SDS011;2393;50.560;12.636;2023-04-24T11:40:05;3.07;;;0.60;;
4758;SDS011;2393;50.560;12.636;2023-04-24T11:42:35;0.67;;;0.67;;
4758;SDS011;2393;50.560;12.636;2023-04-24T11:45:07;0.70;;;0.50;;
4758;SDS011;2393;50.560;12.636;2023-04-24T11:47:37;0.60;;;0.50;;
4758;SDS011;2393;50.560;12.636;2023-04-24T11:50:06;0.60;;;0.60;;
4758;SDS011;2393;50.560;12.636;2023-04-24T11:52:38;0.50;;;0.50;;
4758;SDS011;2393;50.560;12.636;2023-04-24T11:55:08;0.87;;;0.40;;
4758;SDS011;2393;50.560;12.636;2023-04-24T11:57:50;0.80;;;0.50;;
4758;SDS011;2393;50.560;12.636;2023-04-24T12:00:20;0.70;;;0.70;;
4758;SDS011;2393;50.560;12.636;2023-04-24T12:02:49;0.80;;;0.50;;
4758;SDS011;2393;50.560;12.636;2023-04-24T12:05:19;1.07;;;0.50;;
4758;SDS011;2393;50.560;12.636;2023-04-24T12:07:49;0.60;;;0.50;;
4758;SDS011;2393;50.560;12.636;2023-04-24T12:10:20;0.50;;;0.50;;
4758;SDS011;2393;50.560;12.636;2023-04-24T12:12:48;0.50;;;0.50;;
4758;SDS011;2393;50.560;12.636;2023-04-24T12:15:18;0.57;;;0.57;;
4758;SDS011;2393;50.560;12.636;2023-04-24T12:17:47;6.80;;;0.77;;
4758;SDS011;2393;50.560;12.636;2023-04-24T12:20:16;2.30;;;1.30;;
4758;SDS011;2393;50.560;12.636;2023-04-24T12:22:44;18.53;;;8.37;;
4758;SDS011;2393;50.560;12.636;2023-04-24T12:25:15;72.27;;;25.03;;
4758;SDS011;2393;50.560;12.636;2023-04-24T12:27:44;58.63;;;19.93;;
4758;SDS011;2393;50.560;12.636;2023-04-24T12:30:14;2.57;;;0.90;;
4758;SDS011;2393;50.560;12.636;2023-04-24T12:32:44;1.53;;;0.60;;
4758;SDS011;2393;50.560;12.636;2023-04-24T12:35:13;0.50;;;0.50;;
4758;SDS011;2393;50.560;12.636;2023-04-24T12:37:42;0.60;;;0.60;;
4758;SDS011;2393;50.560;12.636;2023-04-24T12:40:14;1.03;;;0.70;;
4758;SDS011;2393;50.560;12.636;2023-04-24T12:42:43;1.47;;;0.80;;
4758;SDS011;2393;50.560;12.636;2023-04-24T12:45:12;0.97;;;0.97;;
4758;SDS011;2393;50.560;12.636;2023-04-24T12:47:42;0.50;;;0.50;;
4758;SDS011;2393;50.560;12.636;2023-04-24T12:50:11;0.60;;;0.60;;
4758;SDS011;2393;50.560;12.636;2023-04-24T12:52:41;0.80;;;0.80;;
4758;SDS011;2393;50.560;12.636;2023-04-24T12:55:10;1.07;;;0.97;;
4758;SDS011;2393;50.560;12.636;2023-04-24T12:57:40;1.27;;;0.50;;
4758;SDS011;2393;50.560;12.636;2023-04-24T13:00:08;0.70;;;0.60;;
4758;SDS011;2393;50.560;12.636;2023-04-24T13:02:37;1.23;;;0.60;;
4758;SDS011;2393;50.560;12.636;2023-04-24T13:05:05;1.10;;;1.00;;
4758;SDS011;2393;50.560;12.636;2023-04-24T13:07:34;2.20;;;0.83;;
4758;SDS011;2393;50.560;12.636;2023-04-24T13:10:02;1.03;;;0.60;;
4758;SDS011;2393;50.560;12.636;2023-04-24T13:12:30;1.30;;;1.20;;
4758;SDS011;2393;50.560;12.636;2023-04-24T13:15:00;0.53;;;0.53;;
4758;SDS011;2393;50.560;12.636;2023-04-24T13:17:28;2.40;;;1.13;;
4758;SDS011;2393;50.560;12.636;2023-04-24T13:19:56;1.23;;;0.60;;
4758;SDS011;2393;50.560;12.636;2023-04-24T13:22:24;1.37;;;0.50;;
4758;SDS011;2393;50.560;12.636;2023-04-24T13:24:53;0.50;;;0.50;;
4758;SDS011;2393;50.560;12.636;2023-04-24T13:27:22;0.80;;;0.53;;
4758;SDS011;2393;50.560;12.636;2023-04-24T13:29:50;1.57;;;0.77;;
4758;SDS011;2393;50.560;12.636;2023-04-24T13:32:19;0.60;;;0.60;;
4758;SDS011;2393;50.560;12.636;2023-04-24T13:34:48;6.90;;;3.20;;
4758;SDS011;2393;50.560;12.636;2023-04-24T13:37:16;27.93;;;9.40;;
4758;SDS011;2393;50.560;12.636;2023-04-24T13:39:44;25.97;;;8.70;;
4758;SDS011;2393;50.560;12.636;2023-04-24T13:42:12;1.73;;;1.63;;
4758;SDS011;2393;50.560;12.636;2023-04-24T13:44:40;9.97;;;2.80;;
4758;SDS011;2393;50.560;12.636;2023-04-24T13:47:09;7.03;;;2.70;;
4758;SDS011;2393;50.560;12.636;2023-04-24T13:49:38;2.93;;;1.93;;
4758;SDS011;2393;50.560;12.636;2023-04-24T13:52:06;1.13;;;1.10;;
4758;SDS011;2393;50.560;12.636;2023-04-24T13:54:36;2.30;;;0.67;;
4758;SDS011;2393;50.560;12.636;2023-04-24T13:57:04;10.83;;;4.40;;
4758;SDS011;2393;50.560;12.636;2023-04-24T13:59:32;2.73;;;1.90;;
4758;SDS011;2393;50.560;12.636;2023-04-24T14:02:01;3.80;;;1.90;;
4758;SDS011;2393;50.560;12.636;2023-04-24T14:04:29;1.37;;;0.80;;
4758;SDS011;2393;50.560;12.636;2023-04-24T14:06:58;5.10;;;2.43;;
4758;SDS011;2393;50.560;12.636;2023-04-24T14:09:27;3.33;;;2.70;;
4758;SDS011;2393;50.560;12.636;2023-04-24T14:11:55;7.37;;;4.00;;
4758;SDS011;2393;50.560;12.636;2023-04-24T14:14:23;2.40;;;2.07;;
4758;SDS011;2393;50.560;12.636;2023-04-24T14:16:51;2.50;;;2.30;;
4758;SDS011;2393;50.560;12.636;2023-04-24T14:19:19;3.57;;;1.93;;
4758;SDS011;2393;50.560;12.636;2023-04-24T14:21:48;1.37;;;1.27;;
4758;SDS011;2393;50.560;12.636;2023-04-24T14:24:17;2.77;;;2.57;;
4758;SDS011;2393;50.560;12.636;2023-04-24T14:26:46;1.40;;;1.30;;
4758;SDS011;2393;50.560;12.636;2023-04-24T14:29:14;6.23;;;3.17;;
4758;SDS011;2393;50.560;12.636;2023-04-24T14:31:42;1.20;;;1.20;;
4758;SDS011;2393;50.560;12.636;2023-04-24T14:34:11;6.10;;;3.63;;
4758;SDS011;2393;50.560;12.636;2023-04-24T14:36:40;4.67;;;2.10;;
4758;SDS011;2393;50.560;12.636;2023-04-24T14:39:09;4.30;;;2.00;;
4758;SDS011;2393;50.560;12.636;2023-04-24T14:41:39;0.90;;;0.90;;
4758;SDS011;2393;50.560;12.636;2023-04-24T14:44:07;1.43;;;1.23;;
4758;SDS011;2393;50.560;12.636;2023-04-24T14:46:35;3.13;;;1.30;;
4758;SDS011;2393;50.560;12.636;2023-04-24T14:49:03;0.90;;;0.90;;
4758;SDS011;2393;50.560;12.636;2023-04-24T14:51:31;1.33;;;0.90;;
4758;SDS011;2393;50.560;12.636;2023-04-24T14:54:01;1.53;;;0.80;;
4758;SDS011;2393;50.560;12.636;2023-04-24T14:56:29;4.43;;;1.10;;
4758;SDS011;2393;50.560;12.636;2023-04-24T14:58:58;4.73;;;3.07;;
4758;SDS011;2393;50.560;12.636;2023-04-24T15:01:26;2.97;;;2.43;;
4758;SDS011;2393;50.560;12.636;2023-04-24T15:03:54;2.57;;;2.37;;
4758;SDS011;2393;50.560;12.636;2023-04-24T15:06:23;3.70;;;1.93;;
4758;SDS011;2393;50.560;12.636;2023-04-24T15:08:51;1.40;;;0.93;;
4758;SDS011;2393;50.560;12.636;2023-04-24T15:11:19;5.40;;;1.57;;
4758;SDS011;2393;50.560;12.636;2023-04-24T15:13:47;12.30;;;4.77;;
4758;SDS011;2393;50.560;12.636;2023-04-24T15:16:17;12.57;;;5.20;;
4758;SDS011;2393;50.560;12.636;2023-04-24T15:18:45;1.47;;;1.37;;
4758;SDS011;2393;50.560;12.636;2023-04-24T15:21:13;30.87;;;9.30;;